Time;durP1;ratioP1;P1;durP2;ratioP2;P2;SDS_P1;SDS_P2;PMS_P1;PMS_P2;Temp;Humidity;BMP_temperature;BMP_pressure;BME280_temperature;BME280_humidity;BME280_pressure;Samples;Min_cycle;Max_cycle;Signal;HPM_P1;HPM_P2
2021/12/26 00:00:16;;;;;;;80.35;16.88;;;;;;;;;;5008944;28;20459;-72
2021/12/26 00:02:43;;;;;;;90.22;18.40;;;;;;;;;;4992880;28;20572;-74
2021/12/26 00:05:09;;;;;;;98.82;18.88;;;;;;;;;;5004571;28;20471;-74
2021/12/26 00:07:35;;;;;;;81.35;19.95;;;;;;;;;;4992624;28;20093;-74
2021/12/26 00:10:01;;;;;;;41.92;12.63;;;;;;;;;;5004680;28;20034;-74
2021/12/26 00:12:26;;;;;;;63.43;15.13;;;;;;;;;;4991896;28;20034;-74
2021/12/26 00:14:51;;;;;;;41.13;13.60;;;;;;;;;;4989626;28;20463;-73
2021/12/26 00:17:17;;;;;;;58.37;14.33;;;;;;;;;;5000722;28;20106;-74
2021/12/26 00:19:42;;;;;;;46.70;13.87;;;;;;;;;;4987616;28;20049;-72
2021/12/26 00:22:08;;;;;;;43.87;14.07;;;;;;;;;;4990210;28;20094;-74
2021/12/26 00:24:34;;;;;;;53.60;15.27;;;;;;;;;;4992256;28;20113;-74
2021/12/26 00:27:00;;;;;;;63.75;16.48;;;;;;;;;;5012861;28;20045;-74
2021/12/26 00:29:26;;;;;;;64.33;16.97;;;;;;;;;;4992718;28;20034;-74
2021/12/26 00:31:51;;;;;;;60.90;15.77;;;;;;;;;;4997479;28;20026;-74
2021/12/26 00:34:16;;;;;;;58.63;16.23;;;;;;;;;;4993955;28;20041;-74
2021/12/26 00:36:42;;;;;;;70.40;17.57;;;;;;;;;;5002206;28;20030;-75
2021/12/26 00:39:09;;;;;;;84.23;16.60;;;;;;;;;;5008263;28;20027;-75
2021/12/26 00:41:35;;;;;;;67.93;16.67;;;;;;;;;;4990738;28;20049;-71
2021/12/26 00:44:01;;;;;;;44.95;13.77;;;;;;;;;;4993381;28;20157;-71
2021/12/26 00:46:27;;;;;;;61.23;16.00;;;;;;;;;;4996727;28;20526;-71
2021/12/26 00:48:52;;;;;;;63.33;15.87;;;;;;;;;;4997731;28;20034;-72
2021/12/26 00:51:17;;;;;;;52.47;15.53;;;;;;;;;;5001379;28;20023;-72
2021/12/26 00:53:43;;;;;;;54.33;14.07;;;;;;;;;;4993829;28;20069;-71
2021/12/26 00:56:08;;;;;;;55.70;16.07;;;;;;;;;;5004528;28;20061;-72
2021/12/26 00:58:34;;;;;;;87.83;19.07;;;;;;;;;;5004152;28;20382;-73
2021/12/26 01:01:00;;;;;;;53.73;15.93;;;;;;;;;;4998629;28;20382;-73
2021/12/26 01:03:26;;;;;;;40.80;13.82;;;;;;;;;;4998384;28;20050;-74
2021/12/26 01:05:55;;;;;;;65.30;15.80;;;;;;;;;;5010998;28;20030;-74
2021/12/26 01:08:25;;;;;;;52.53;14.05;;;;;;;;;;4996777;28;20034;-74
2021/12/26 01:10:55;;;;;;;60.88;14.00;;;;;;;;;;5004513;28;20069;-74
2021/12/26 01:13:28;;;;;;;42.63;11.52;;;;;;;;;;5002069;28;20126;-74
2021/12/26 01:15:57;;;;;;;45.88;12.45;;;;;;;;;;4997958;28;20035;-74
2021/12/26 01:18:23;;;;;;;53.17;13.95;;;;;;;;;;4994350;28;20034;-71
2021/12/26 01:20:55;;;;;;;77.80;17.30;;;;;;;;;;5008521;28;20422;-71
2021/12/26 01:23:21;;;;;;;70.18;15.70;;;;;;;;;;4990974;28;20477;-72
2021/12/26 01:25:47;;;;;;;38.65;10.95;;;;;;;;;;4992202;28;20053;-72
2021/12/26 01:28:13;;;;;;;36.83;10.67;;;;;;;;;;5004422;28;20481;-72
2021/12/26 01:30:40;;;;;;;37.63;10.40;;;;;;;;;;5003557;28;20036;-74
2021/12/26 01:33:08;;;;;;;39.95;11.25;;;;;;;;;;5006048;28;20473;-74
2021/12/26 01:35:34;;;;;;;33.25;9.70;;;;;;;;;;5010040;28;20038;-74
2021/12/26 01:37:59;;;;;;;36.73;9.73;;;;;;;;;;5015274;28;20043;-77
2021/12/26 01:40:25;;;;;;;28.23;8.47;;;;;;;;;;4996417;28;20035;-74
2021/12/26 01:42:51;;;;;;;32.67;8.80;;;;;;;;;;4995393;28;20041;-72
2021/12/26 01:45:17;;;;;;;26.63;9.07;;;;;;;;;;4995450;28;20510;-71
2021/12/26 01:47:45;;;;;;;44.53;10.70;;;;;;;;;;5008433;28;20125;-72
2021/12/26 01:50:10;;;;;;;34.42;10.27;;;;;;;;;;5014770;28;20034;-72
2021/12/26 01:52:36;;;;;;;41.30;9.87;;;;;;;;;;4997105;28;20026;-74
2021/12/26 01:55:21;;;;;;;34.23;9.37;;;;;;;;;;4994168;28;20031;-73
2021/12/26 01:57:49;;;;;;;31.67;8.88;;;;;;;;;;4995597;28;20035;-74
2021/12/26 02:00:14;;;;;;;34.78;9.75;;;;;;;;;;5015941;28;20121;-73
2021/12/26 02:02:40;;;;;;;37.00;9.07;;;;;;;;;;4999338;28;20156;-73
2021/12/26 02:05:05;;;;;;;36.63;9.43;;;;;;;;;;4995419;28;20037;-73
2021/12/26 02:07:31;;;;;;;26.63;7.63;;;;;;;;;;4997781;28;20038;-73
2021/12/26 02:09:56;;;;;;;32.33;8.17;;;;;;;;;;4994765;28;20189;-73
2021/12/26 02:12:22;;;;;;;28.20;8.37;;;;;;;;;;4995874;28;20022;-73
2021/12/26 02:14:47;;;;;;;31.23;8.10;;;;;;;;;;5012755;28;20046;-73
2021/12/26 02:17:16;;;;;;;30.97;8.80;;;;;;;;;;4999222;28;20116;-74
2021/12/26 02:19:42;;;;;;;33.03;7.80;;;;;;;;;;5010683;28;20022;-73
2021/12/26 02:22:18;;;;;;;22.02;7.30;;;;;;;;;;4999128;28;20081;-73
2021/12/26 02:29:54;;;;;;;19.60;6.38;;;;;;;;;;4998141;28;20046;-72
2021/12/26 02:32:19;;;;;;;21.53;7.57;;;;;;;;;;5002517;28;20038;-73
2021/12/26 02:34:45;;;;;;;31.17;8.63;;;;;;;;;;5000251;28;20042;-73
2021/12/26 02:37:10;;;;;;;79.57;14.73;;;;;;;;;;5001619;28;20033;-73
2021/12/26 02:39:36;;;;;;;32.90;8.13;;;;;;;;;;4996615;28;20046;-72
2021/12/26 02:42:01;;;;;;;45.07;9.73;;;;;;;;;;4990017;28;20066;-73
2021/12/26 02:44:27;;;;;;;39.63;9.10;;;;;;;;;;5009519;28;20161;-74
2021/12/26 02:46:53;;;;;;;29.60;7.93;;;;;;;;;;5011564;28;20506;-73
2021/12/26 02:49:25;;;;;;;19.50;6.97;;;;;;;;;;5003872;28;20033;-73
2021/12/26 02:51:52;;;;;;;22.92;7.43;;;;;;;;;;5011418;28;20069;-73
2021/12/26 02:54:18;;;;;;;22.02;7.75;;;;;;;;;;5029282;28;20053;-73
2021/12/26 02:56:43;;;;;;;36.20;9.67;;;;;;;;;;5013466;28;20060;-73
2021/12/26 02:59:09;;;;;;;25.57;7.57;;;;;;;;;;5014356;28;20095;-72
2021/12/26 03:01:34;;;;;;;32.03;8.13;;;;;;;;;;5024223;28;20057;-73
2021/12/26 03:04:04;;;;;;;44.80;9.50;;;;;;;;;;5006101;28;20042;-72
2021/12/26 03:06:36;;;;;;;35.58;8.05;;;;;;;;;;5003601;28;20101;-73
2021/12/26 03:09:03;;;;;;;40.13;9.88;;;;;;;;;;5027211;28;20034;-73
2021/12/26 03:11:29;;;;;;;;;;;;;;;;;;5009118;28;20054;-73
2021/12/26 03:13:54;;;;;;;32.17;8.10;;;;;;;;;;5025792;28;19909;-71
2021/12/26 03:16:20;;;;;;;32.17;9.23;;;;;;;;;;5007039;28;20038;-73
2021/12/26 03:18:45;;;;;;;37.57;8.60;;;;;;;;;;5011151;28;20091;-73
2021/12/26 03:21:11;;;;;;;35.20;9.23;;;;;;;;;;5004458;28;20390;-73
2021/12/26 03:23:36;;;;;;;24.77;8.50;;;;;;;;;;5012903;28;20078;-73
2021/12/26 03:26:04;;;;;;;45.33;9.03;;;;;;;;;;5011402;28;20038;-73
2021/12/26 03:28:30;;;;;;;21.67;8.20;;;;;;;;;;5023784;28;20023;-73
2021/12/26 03:30:56;;;;;;;34.17;9.07;;;;;;;;;;5008090;28;20471;-73
2021/12/26 03:33:23;;;;;;;31.40;7.78;;;;;;;;;;5003073;28;20268;-73
2021/12/26 03:35:48;;;;;;;32.78;9.07;;;;;;;;;;4998246;28;20399;-74
2021/12/26 03:38:15;;;;;;;31.63;8.63;;;;;;;;;;5002246;28;20042;-73
2021/12/26 03:40:41;;;;;;;44.67;10.25;;;;;;;;;;5004169;28;20044;-73
2021/12/26 03:43:08;;;;;;;35.03;8.82;;;;;;;;;;4997592;28;20038;-72
2021/12/26 03:45:34;;;;;;;31.15;8.18;;;;;;;;;;5008031;28;20030;-73
2021/12/26 03:47:59;;;;;;;23.77;7.05;;;;;;;;;;5003744;28;20077;-73
2021/12/26 03:50:28;;;;;;;26.10;8.73;;;;;;;;;;5019565;28;20487;-73
2021/12/26 03:52:56;;;;;;;30.33;9.13;;;;;;;;;;5023012;28;20088;-73
2021/12/26 03:55:25;;;;;;;25.70;8.50;;;;;;;;;;5001206;28;20482;-72
2021/12/26 03:57:52;;;;;;;33.67;9.02;;;;;;;;;;5000593;28;20635;-73
2021/12/26 04:00:18;;;;;;;29.33;9.50;;;;;;;;;;5020539;28;20034;-73
2021/12/26 04:02:43;;;;;;;48.47;12.05;;;;;;;;;;4999922;28;20062;-73
2021/12/26 04:05:10;;;;;;;34.90;9.63;;;;;;;;;;5018411;28;20068;-73
2021/12/26 04:07:36;;;;;;;29.42;9.73;;;;;;;;;;4999977;28;20382;-73
2021/12/26 04:10:03;;;;;;;34.88;9.65;;;;;;;;;;4996086;28;20042;-73
2021/12/26 04:12:35;;;;;;;29.85;9.20;;;;;;;;;;5004860;28;20074;-73
2021/12/26 04:15:02;;;;;;;28.77;9.45;;;;;;;;;;5001654;28;20034;-73
2021/12/26 04:17:28;;;;;;;39.85;10.35;;;;;;;;;;5009905;28;20038;-73
2021/12/26 04:19:53;;;;;;;41.00;10.97;;;;;;;;;;5009212;28;20078;-72
2021/12/26 04:22:18;;;;;;;39.47;10.60;;;;;;;;;;5010325;28;20045;-73
2021/12/26 04:24:44;;;;;;;41.50;11.17;;;;;;;;;;5002826;28;20494;-73
2021/12/26 04:27:09;;;;;;;56.83;10.60;;;;;;;;;;5008217;28;20038;-73
2021/12/26 04:29:35;;;;;;;47.00;10.70;;;;;;;;;;5004552;28;20364;-73
2021/12/26 04:32:00;;;;;;;45.17;10.97;;;;;;;;;;5001187;28;20046;-74
2021/12/26 04:34:25;;;;;;;41.60;11.53;;;;;;;;;;5002146;28;20046;-74
2021/12/26 04:36:51;;;;;;;51.07;11.53;;;;;;;;;;5008223;28;20025;-75
2021/12/26 04:39:16;;;;;;;65.63;12.17;;;;;;;;;;5007737;28;20044;-75
2021/12/26 04:41:45;;;;;;;53.23;11.13;;;;;;;;;;4999293;28;20049;-75
2021/12/26 04:44:10;;;;;;;41.33;8.95;;;;;;;;;;4997129;28;20026;-75
2021/12/26 04:46:36;;;;;;;43.87;10.43;;;;;;;;;;5002971;28;20100;-74
2021/12/26 04:49:01;;;;;;;35.37;9.80;;;;;;;;;;4998716;28;20042;-74
2021/12/26 04:51:27;;;;;;;34.50;8.97;;;;;;;;;;5001251;28;20026;-72
2021/12/26 04:53:52;;;;;;;44.70;9.83;;;;;;;;;;5016179;28;20141;-72
2021/12/26 04:56:18;;;;;;;37.63;9.73;;;;;;;;;;5002161;28;20041;-72
2021/12/26 04:58:43;;;;;;;48.93;9.30;;;;;;;;;;4995156;28;20515;-71
2021/12/26 05:01:08;;;;;;;43.80;9.93;;;;;;;;;;4992639;28;20034;-72
2021/12/26 05:03:34;;;;;;;41.07;10.67;;;;;;;;;;4996856;28;20046;-71
2021/12/26 05:05:59;;;;;;;30.83;8.90;;;;;;;;;;5004400;28;20061;-72
2021/12/26 05:08:25;;;;;;;36.77;9.83;;;;;;;;;;5002288;28;20057;-71
2021/12/26 05:10:50;;;;;;;41.10;10.00;;;;;;;;;;5000168;28;20108;-72
2021/12/26 05:13:15;;;;;;;38.63;9.97;;;;;;;;;;4998575;28;20389;-72
2021/12/26 05:15:41;;;;;;;42.67;10.43;;;;;;;;;;5014988;28;20379;-72
2021/12/26 05:18:06;;;;;;;41.90;9.43;;;;;;;;;;5012348;28;20053;-71
2021/12/26 05:20:32;;;;;;;41.43;10.03;;;;;;;;;;5003039;28;20037;-72
2021/12/26 05:22:58;;;;;;;34.73;8.93;;;;;;;;;;5006003;28;20518;-73
2021/12/26 05:25:24;;;;;;;48.53;9.20;;;;;;;;;;4996667;28;20126;-72
2021/12/26 05:27:51;;;;;;;48.15;10.35;;;;;;;;;;5001817;28;20109;-72
2021/12/26 05:30:18;;;;;;;37.03;9.50;;;;;;;;;;5004694;28;20147;-73
2021/12/26 05:32:44;;;;;;;43.97;10.10;;;;;;;;;;5010522;28;20414;-72
2021/12/26 05:35:11;;;;;;;43.22;9.98;;;;;;;;;;5005034;28;20057;-72
2021/12/26 05:37:37;;;;;;;45.05;10.10;;;;;;;;;;5001710;28;20057;-73
2021/12/26 05:40:04;;;;;;;99.10;12.73;;;;;;;;;;5017458;28;20069;-71
2021/12/26 05:42:30;;;;;;;194.93;21.40;;;;;;;;;;4999450;28;20041;-72
2021/12/26 05:44:56;;;;;;;38.05;9.50;;;;;;;;;;5001628;28;20538;-71
2021/12/26 05:47:21;;;;;;;37.53;8.63;;;;;;;;;;5007824;28;20034;-72
2021/12/26 05:49:47;;;;;;;45.63;9.73;;;;;;;;;;5027645;28;20026;-72
2021/12/26 05:52:12;;;;;;;26.53;8.30;;;;;;;;;;5011162;28;20042;-72
2021/12/26 05:54:38;;;;;;;46.13;9.20;;;;;;;;;;5005204;28;20120;-73
2021/12/26 05:57:04;;;;;;;50.67;9.27;;;;;;;;;;5012053;28;20022;-72
2021/12/26 05:59:30;;;;;;;75.93;11.05;;;;;;;;;;5006185;28;20042;-72
2021/12/26 06:01:55;;;;;;;77.30;10.00;;;;;;;;;;5006593;28;20045;-74
2021/12/26 06:04:21;;;;;;;54.30;8.83;;;;;;;;;;5017207;28;20113;-74
2021/12/26 06:06:46;;;;;;;48.47;9.33;;;;;;;;;;5007839;28;20045;-74
2021/12/26 06:09:12;;;;;;;37.77;8.27;;;;;;;;;;4999145;28;20049;-74
2021/12/26 06:11:38;;;;;;;29.60;8.20;;;;;;;;;;5006430;28;20221;-74
2021/12/26 06:14:04;;;;;;;38.47;8.87;;;;;;;;;;5005420;28;20513;-71
2021/12/26 06:16:30;;;;;;;37.45;9.15;;;;;;;;;;5007804;28;20104;-72
2021/12/26 06:18:56;;;;;;;47.60;10.57;;;;;;;;;;5003937;28;20539;-72
2021/12/26 06:21:22;;;;;;;55.70;11.03;;;;;;;;;;5026377;28;20034;-71
2021/12/26 06:23:50;;;;;;;53.10;9.93;;;;;;;;;;5005986;28;20046;-71
2021/12/26 06:26:20;;;;;;;34.60;8.73;;;;;;;;;;5022097;28;20025;-71
2021/12/26 06:28:47;;;;;;;56.30;10.32;;;;;;;;;;5005652;28;20050;-71
2021/12/26 06:31:12;;;;;;;75.30;13.03;;;;;;;;;;5004908;28;20043;-71
2021/12/26 06:33:39;;;;;;;66.20;11.90;;;;;;;;;;5008657;28;20022;-71
2021/12/26 06:36:05;;;;;;;56.15;11.27;;;;;;;;;;5008979;28;20089;-71
2021/12/26 06:38:34;;;;;;;99.97;15.00;;;;;;;;;;4995375;28;20069;-71
2021/12/26 06:41:01;;;;;;;40.70;10.10;;;;;;;;;;5002549;28;20030;-72
2021/12/26 06:43:26;;;;;;;56.08;11.18;;;;;;;;;;5009887;28;20054;-71
2021/12/26 06:45:53;;;;;;;64.50;13.67;;;;;;;;;;5004180;28;20035;-71
2021/12/26 06:48:18;;;;;;;;;;;;;;;;;;4999374;28;20064;-72
2021/12/26 06:50:45;;;;;;;112.15;14.88;;;;;;;;;;5010510;28;19921;-71
2021/12/26 06:53:11;;;;;;;75.53;10.75;;;;;;;;;;5008239;28;20038;-71
2021/12/26 06:55:37;;;;;;;190.20;19.60;;;;;;;;;;5009056;28;20037;-71
2021/12/26 06:58:02;;;;;;;58.03;11.20;;;;;;;;;;5028871;28;20446;-71
2021/12/26 07:00:28;;;;;;;80.97;11.73;;;;;;;;;;5007201;28;20038;-71
2021/12/26 07:02:53;;;;;;;105.47;13.23;;;;;;;;;;5007985;28;20025;-73
2021/12/26 07:05:19;;;;;;;39.60;9.73;;;;;;;;;;5001235;28;20052;-73
2021/12/26 07:07:44;;;;;;;52.30;11.43;;;;;;;;;;5006843;28;20041;-73
2021/12/26 07:10:10;;;;;;;57.50;11.23;;;;;;;;;;5006284;28;20100;-73
2021/12/26 07:12:36;;;;;;;68.60;12.47;;;;;;;;;;5010678;28;20490;-73
2021/12/26 07:15:02;;;;;;;47.97;11.03;;;;;;;;;;5001542;28;20046;-72
2021/12/26 07:17:27;;;;;;;47.13;9.83;;;;;;;;;;5019144;28;20061;-72
2021/12/26 07:19:52;;;;;;;45.20;10.63;;;;;;;;;;5000476;28;20039;-73
2021/12/26 07:22:18;;;;;;;54.57;10.47;;;;;;;;;;5004452;28;20050;-73
2021/12/26 07:24:46;;;;;;;85.47;12.47;;;;;;;;;;5002367;28;20053;-73
2021/12/26 07:27:12;;;;;;;64.30;9.45;;;;;;;;;;4999726;28;20044;-73
2021/12/26 07:29:38;;;;;;;136.57;12.53;;;;;;;;;;4997520;28;20033;-73
2021/12/26 07:32:04;;;;;;;62.67;9.43;;;;;;;;;;4999372;28;20034;-75
2021/12/26 07:34:29;;;;;;;57.47;11.05;;;;;;;;;;4998103;28;20095;-75
2021/12/26 07:36:55;;;;;;;38.83;10.57;;;;;;;;;;5000166;28;20050;-74
2021/12/26 07:39:20;;;;;;;44.87;8.10;;;;;;;;;;4995164;28;20045;-75
2021/12/26 07:41:45;;;;;;;38.90;9.10;;;;;;;;;;4995062;28;20041;-75
2021/12/26 07:44:11;;;;;;;38.73;8.27;;;;;;;;;;5006366;28;20489;-73
2021/12/26 07:46:36;;;;;;;58.80;8.83;;;;;;;;;;5012273;28;20025;-72
2021/12/26 07:49:02;;;;;;;39.67;8.27;;;;;;;;;;5001188;28;20053;-73
2021/12/26 07:51:27;;;;;;;43.23;9.10;;;;;;;;;;5012876;28;20077;-73
2021/12/26 07:53:58;;;;;;;48.10;9.13;;;;;;;;;;5013481;28;20037;-73
2021/12/26 07:56:23;;;;;;;217.95;17.77;;;;;;;;;;5008600;28;20042;-73
2021/12/26 07:58:49;;;;;;;50.37;8.80;;;;;;;;;;4999313;28;20038;-73
2021/12/26 08:01:14;;;;;;;162.50;18.13;;;;;;;;;;4996295;28;20113;-73
2021/12/26 08:03:40;;;;;;;187.03;20.77;;;;;;;;;;4998395;28;20048;-73
2021/12/26 08:06:07;;;;;;;133.97;15.67;;;;;;;;;;4997506;28;20396;-73
2021/12/26 08:08:33;;;;;;;57.80;9.88;;;;;;;;;;5007228;28;20029;-73
2021/12/26 08:10:58;;;;;;;50.90;9.23;;;;;;;;;;5002650;28;20038;-73
2021/12/26 08:13:24;;;;;;;39.23;7.70;;;;;;;;;;4999749;28;20042;-73
2021/12/26 08:15:50;;;;;;;35.42;9.43;;;;;;;;;;4996555;28;20352;-72
2021/12/26 08:18:15;;;;;;;52.77;9.17;;;;;;;;;;4995210;28;20085;-72
2021/12/26 08:20:42;;;;;;;44.50;8.67;;;;;;;;;;5007202;28;20041;-73
2021/12/26 08:23:07;;;;;;;49.30;11.07;;;;;;;;;;5007193;28;20053;-73
2021/12/26 08:25:32;;;;;;;50.83;10.77;;;;;;;;;;5002135;28;20387;-73
2021/12/26 08:27:58;;;;;;;57.73;9.77;;;;;;;;;;4992202;28;20050;-73
2021/12/26 08:30:24;;;;;;;76.43;11.90;;;;;;;;;;5005395;28;20493;-75
2021/12/26 08:32:53;;;;;;;42.95;11.30;;;;;;;;;;5012564;28;20539;-75
2021/12/26 08:35:19;;;;;;;35.58;9.70;;;;;;;;;;4999901;28;20038;-75
2021/12/26 08:37:46;;;;;;;45.57;8.47;;;;;;;;;;5008959;28;20023;-76
2021/12/26 08:40:12;;;;;;;45.85;9.23;;;;;;;;;;4987994;28;20061;-74
2021/12/26 08:42:38;;;;;;;51.00;10.82;;;;;;;;;;5000234;28;20083;-75
2021/12/26 08:45:04;;;;;;;38.90;8.53;;;;;;;;;;5001659;28;20061;-75
2021/12/26 08:47:29;;;;;;;54.40;10.87;;;;;;;;;;5003827;28;20467;-75
2021/12/26 08:49:55;;;;;;;150.77;15.47;;;;;;;;;;4999844;28;20048;-71
2021/12/26 08:52:20;;;;;;;118.93;13.87;;;;;;;;;;4996523;28;20026;-72
2021/12/26 08:54:46;;;;;;;67.57;9.50;;;;;;;;;;5006344;28;21326;-72
2021/12/26 08:57:11;;;;;;;84.10;11.30;;;;;;;;;;4996827;28;20543;-72
2021/12/26 08:59:37;;;;;;;100.80;13.90;;;;;;;;;;5002606;28;20025;-72
2021/12/26 09:02:06;;;;;;;88.15;11.52;;;;;;;;;;5018983;28;20066;-74
2021/12/26 09:04:32;;;;;;;55.22;10.70;;;;;;;;;;4998874;28;20035;-72
2021/12/26 09:06:57;;;;;;;58.30;10.80;;;;;;;;;;4994921;28;20097;-72
2021/12/26 09:09:25;;;;;;;66.87;13.10;;;;;;;;;;4993962;28;20045;-72
2021/12/26 09:11:51;;;;;;;56.03;12.32;;;;;;;;;;5014640;28;20065;-72
2021/12/26 09:14:16;;;;;;;62.73;12.20;;;;;;;;;;5016217;28;20489;-72
2021/12/26 09:16:42;;;;;;;51.67;10.73;;;;;;;;;;4990134;28;20066;-73
2021/12/26 09:19:07;;;;;;;91.90;12.77;;;;;;;;;;4982940;28;20435;-71
2021/12/26 09:21:33;;;;;;;68.13;12.03;;;;;;;;;;4990555;28;20105;-72
2021/12/26 09:23:58;;;;;;;65.07;11.57;;;;;;;;;;5004976;28;20092;-72
2021/12/26 09:26:24;;;;;;;42.63;9.30;;;;;;;;;;5005939;28;20037;-72
2021/12/26 09:28:50;;;;;;;41.17;9.03;;;;;;;;;;5016588;28;20029;-72
2021/12/26 09:31:15;;;;;;;51.20;10.63;;;;;;;;;;5001971;28;20121;-73
2021/12/26 09:33:41;;;;;;;69.43;12.87;;;;;;;;;;5010056;28;20044;-72
2021/12/26 09:36:06;;;;;;;95.50;13.63;;;;;;;;;;5000230;28;20034;-72
2021/12/26 09:38:31;;;;;;;214.47;21.47;;;;;;;;;;4991692;28;20486;-72
2021/12/26 09:40:59;;;;;;;101.90;16.47;;;;;;;;;;5007373;28;20458;-72
2021/12/26 09:43:24;;;;;;;109.78;15.18;;;;;;;;;;5002019;28;20102;-72
2021/12/26 09:45:50;;;;;;;75.90;13.87;;;;;;;;;;5001617;28;20065;-72
2021/12/26 09:48:16;;;;;;;73.30;14.40;;;;;;;;;;4998819;28;20126;-72
2021/12/26 09:50:42;;;;;;;75.97;14.77;;;;;;;;;;4995090;28;20030;-72
2021/12/26 09:53:08;;;;;;;117.32;20.25;;;;;;;;;;5000292;28;20491;-72
2021/12/26 09:55:34;;;;;;;73.85;18.05;;;;;;;;;;4982501;28;20507;-72
2021/12/26 09:57:59;;;;;;;73.73;17.03;;;;;;;;;;4999082;28;20147;-72
2021/12/26 10:00:38;;;;;;;62.70;16.33;;;;;;;;;;5006858;28;20029;-72
2021/12/26 10:03:16;;;;;;;61.15;13.07;;;;;;;;;;5021656;28;20388;-72
2021/12/26 10:06:10;;;;;;;56.80;11.55;;;;;;;;;;4995550;28;20364;-72
2021/12/26 10:08:51;;;;;;;71.05;12.35;;;;;;;;;;5003017;28;20068;-72
2021/12/26 10:11:19;;;;;;;47.47;12.32;;;;;;;;;;5017854;28;20042;-72
2021/12/26 10:13:45;;;;;;;46.67;10.15;;;;;;;;;;5016929;28;20104;-72
2021/12/26 10:16:12;;;;;;;55.67;11.57;;;;;;;;;;4997603;28;20399;-72
2021/12/26 10:18:39;;;;;;;58.90;12.48;;;;;;;;;;4989093;28;20359;-72
2021/12/26 10:21:27;;;;;;;53.03;11.40;;;;;;;;;;4999638;28;20038;-73
2021/12/26 10:23:58;;;;;;;75.85;13.80;;;;;;;;;;4989810;28;20081;-72
2021/12/26 10:26:26;;;;;;;93.78;15.73;;;;;;;;;;5004306;28;20041;-72
2021/12/26 10:29:14;;;;;;;73.30;16.15;;;;;;;;;;4997150;28;20045;-72
2021/12/26 10:32:06;;;;;;;52.75;14.50;;;;;;;;;;5014235;28;20056;-72
2021/12/26 10:34:37;;;;;;;62.22;13.50;;;;;;;;;;4985065;28;20050;-73
2021/12/26 10:37:10;;;;;;;71.50;16.33;;;;;;;;;;4992352;28;20065;-75
2021/12/26 10:39:45;;;;;;;62.40;14.95;;;;;;;;;;4996999;28;20046;-73
2021/12/26 10:42:16;;;;;;;68.28;15.23;;;;;;;;;;4986439;28;20038;-77
2021/12/26 10:44:44;;;;;;;58.25;14.23;;;;;;;;;;4999188;28;20085;-75
2021/12/26 10:47:16;;;;;;;76.85;16.00;;;;;;;;;;5020632;28;20049;-75
2021/12/26 10:49:45;;;;;;;65.85;15.23;;;;;;;;;;4988226;28;20050;-75
2021/12/26 10:52:14;;;;;;;64.43;16.65;;;;;;;;;;5015623;28;20037;-75
2021/12/26 10:54:41;;;;;;;61.35;16.02;;;;;;;;;;4994064;28;20122;-75
2021/12/26 10:57:19;;;;;;;78.15;18.23;;;;;;;;;;4998104;28;20055;-75
2021/12/26 10:59:48;;;;;;;55.40;15.98;;;;;;;;;;4967885;28;20033;-75
2021/12/26 11:02:30;;;;;;;66.80;17.20;;;;;;;;;;4973929;28;20038;-78
2021/12/26 11:05:03;;;;;;;53.72;15.18;;;;;;;;;;4969427;28;20483;-75
2021/12/26 11:07:30;;;;;;;69.50;18.10;;;;;;;;;;4978029;28;20390;-75
2021/12/26 11:10:10;;;;;;;73.30;17.48;;;;;;;;;;4977886;28;20042;-75
2021/12/26 11:12:42;;;;;;;70.80;18.08;;;;;;;;;;4982281;28;20034;-75
2021/12/26 11:15:08;;;;;;;64.40;16.13;;;;;;;;;;4981576;28;20129;-75
2021/12/26 11:17:42;;;;;;;56.88;16.90;;;;;;;;;;4995422;28;20038;-75
2021/12/26 11:20:08;;;;;;;62.35;17.52;;;;;;;;;;4979823;28;20490;-75
2021/12/26 11:22:34;;;;;;;98.13;21.58;;;;;;;;;;4966425;28;20065;-76
2021/12/26 11:25:00;;;;;;;48.73;14.27;;;;;;;;;;4977750;28;20039;-76
2021/12/26 11:27:28;;;;;;;48.23;14.63;;;;;;;;;;4976396;28;20034;-75
2021/12/26 11:29:54;;;;;;;54.47;15.10;;;;;;;;;;4977617;28;20038;-75
2021/12/26 11:32:21;;;;;;;53.17;14.20;;;;;;;;;;4974388;28;20027;-75
2021/12/26 11:34:48;;;;;;;45.50;14.07;;;;;;;;;;4981766;28;20070;-76
2021/12/26 11:37:15;;;;;;;42.45;14.88;;;;;;;;;;4980750;28;20035;-76
2021/12/26 11:39:42;;;;;;;49.25;20.60;;;;;;;;;;4982881;28;20037;-76
2021/12/26 11:42:31;;;;;;;66.10;25.25;;;;;;;;;;4972652;28;20051;-76
2021/12/26 11:45:12;;;;;;;76.57;27.38;;;;;;;;;;4970783;28;20129;-77
2021/12/26 11:47:58;;;;;;;44.35;15.32;;;;;;;;;;4981554;28;20057;-75
2021/12/26 11:50:39;;;;;;;45.20;19.17;;;;;;;;;;4979053;28;20038;-76
2021/12/26 11:53:32;;;;;;;38.03;17.63;;;;;;;;;;4980285;28;20428;-75
2021/12/26 11:56:13;;;;;;;146.30;51.67;;;;;;;;;;4967111;28;20122;-75
2021/12/26 11:58:49;;;;;;;132.73;54.33;;;;;;;;;;4973653;28;20715;-73
2021/12/26 12:01:17;;;;;;;51.88;23.70;;;;;;;;;;4969423;28;20050;-75
2021/12/26 12:03:42;;;;;;;59.75;26.20;;;;;;;;;;4976472;28;20039;-76
2021/12/26 12:06:24;;;;;;;31.07;12.17;;;;;;;;;;4980291;28;20054;-76
2021/12/26 12:08:49;;;;;;;38.85;14.07;;;;;;;;;;4966094;28;20106;-76
2021/12/26 12:11:15;;;;;;;46.60;15.30;;;;;;;;;;4976981;28;20439;-76
2021/12/26 12:13:47;;;;;;;41.87;16.93;;;;;;;;;;4978858;28;20061;-76
2021/12/26 12:16:33;;;;;;;43.13;13.80;;;;;;;;;;4964532;28;20039;-76
2021/12/26 12:19:04;;;;;;;40.33;15.07;;;;;;;;;;4966422;28;20059;-72
2021/12/26 12:21:59;;;;;;;36.60;13.73;;;;;;;;;;4976584;28;20042;-73
2021/12/26 12:24:27;;;;;;;40.20;14.23;;;;;;;;;;4982996;28;20505;-74
2021/12/26 12:26:56;;;;;;;46.25;15.55;;;;;;;;;;4975309;28;20031;-73
2021/12/26 12:29:24;;;;;;;36.72;12.75;;;;;;;;;;4978978;28;20046;-72
2021/12/26 12:32:11;;;;;;;41.83;13.50;;;;;;;;;;4976228;28;20535;-76
2021/12/26 12:34:58;;;;;;;41.00;13.68;;;;;;;;;;4975150;28;20038;-74
2021/12/26 12:37:39;;;;;;;45.38;14.57;;;;;;;;;;4984218;28;20515;-74
2021/12/26 12:40:09;;;;;;;39.25;13.60;;;;;;;;;;4982985;28;20546;-74
2021/12/26 12:42:36;;;;;;;25.67;10.07;;;;;;;;;;4973753;28;20037;-74
2021/12/26 12:45:01;;;;;;;32.80;11.75;;;;;;;;;;4988256;28;20128;-74
2021/12/26 12:47:27;;;;;;;36.13;12.83;;;;;;;;;;4980938;28;20050;-72
2021/12/26 12:49:55;;;;;;;43.70;12.90;;;;;;;;;;4978266;28;20019;-72
2021/12/26 12:52:42;;;;;;;29.40;10.90;;;;;;;;;;4993462;28;20039;-71
2021/12/26 12:55:43;;;;;;;33.70;13.05;;;;;;;;;;4984736;28;20042;-72
2021/12/26 12:58:23;;;;;;;28.92;9.88;;;;;;;;;;4975096;28;20521;-71
2021/12/26 13:00:49;;;;;;;28.13;10.90;;;;;;;;;;4981618;28;20499;-74
2021/12/26 13:03:16;;;;;;;26.30;10.47;;;;;;;;;;4985985;28;20037;-73
2021/12/26 13:05:43;;;;;;;21.83;9.00;;;;;;;;;;4984680;28;20026;-74
2021/12/26 13:08:10;;;;;;;;;;;;;;;;;;4984422;28;20039;-73
2021/12/26 13:10:35;;;;;;;31.48;13.57;;;;;;;;;;4982325;28;20008;-74
2021/12/26 13:13:06;;;;;;;35.50;10.57;;;;;;;;;;4978759;28;20483;-74
2021/12/26 13:15:32;;;;;;;22.27;9.05;;;;;;;;;;4978605;28;20162;-74
2021/12/26 13:18:04;;;;;;;27.42;11.90;;;;;;;;;;4980605;28;20483;-74
2021/12/26 13:20:30;;;;;;;22.55;10.20;;;;;;;;;;4985711;28;20387;-74
2021/12/26 13:22:58;;;;;;;21.17;9.03;;;;;;;;;;4984440;28;20055;-71
2021/12/26 13:25:28;;;;;;;19.65;8.48;;;;;;;;;;4979614;28;20391;-74
2021/12/26 13:27:54;;;;;;;19.52;7.45;;;;;;;;;;5000981;28;20448;-74
2021/12/26 13:30:25;;;;;;;18.83;7.75;;;;;;;;;;4983415;28;20030;-74
2021/12/26 13:32:50;;;;;;;19.73;8.60;;;;;;;;;;5005982;28;20035;-71
2021/12/26 13:35:16;;;;;;;19.80;8.17;;;;;;;;;;4986598;28;20498;-71
2021/12/26 13:37:42;;;;;;;21.50;8.73;;;;;;;;;;4981924;28;20041;-71
2021/12/26 13:40:10;;;;;;;20.93;8.23;;;;;;;;;;4975542;28;20506;-72
2021/12/26 13:42:36;;;;;;;20.17;8.48;;;;;;;;;;4967800;28;20061;-71
2021/12/26 13:45:03;;;;;;;23.08;9.35;;;;;;;;;;4986137;28;20047;-74
2021/12/26 13:47:40;;;;;;;23.70;8.25;;;;;;;;;;4979031;28;20368;-73
2021/12/26 13:50:08;;;;;;;16.48;7.45;;;;;;;;;;4967233;28;20043;-71
2021/12/26 13:52:33;;;;;;;21.17;8.52;;;;;;;;;;4974203;28;20035;-73
2021/12/26 13:54:59;;;;;;;29.13;11.87;;;;;;;;;;4972372;28;20093;-73
2021/12/26 13:57:24;;;;;;;19.10;8.77;;;;;;;;;;4982055;28;20034;-73
2021/12/26 13:59:53;;;;;;;21.73;9.97;;;;;;;;;;4982054;28;20077;-73
2021/12/26 14:02:30;;;;;;;18.85;7.70;;;;;;;;;;4993831;28;20026;-73
2021/12/26 14:05:12;;;;;;;22.40;8.67;;;;;;;;;;4979261;28;20505;-73
2021/12/26 14:07:45;;;;;;;20.48;7.68;;;;;;;;;;4976506;28;20033;-73
2021/12/26 14:10:20;;;;;;;23.05;8.63;;;;;;;;;;4984040;28;20035;-73
2021/12/26 14:12:49;;;;;;;20.98;6.95;;;;;;;;;;4991681;28;20031;-74
2021/12/26 14:15:34;;;;;;;21.63;8.43;;;;;;;;;;4992675;28;20042;-74
2021/12/26 14:18:15;;;;;;;18.42;7.97;;;;;;;;;;4986022;28;20368;-73
2021/12/26 14:21:15;;;;;;;18.35;8.07;;;;;;;;;;4992151;28;20038;-74
2021/12/26 14:23:43;;;;;;;14.20;6.15;;;;;;;;;;4950431;28;20042;-73
2021/12/26 14:26:27;;;;;;;14.73;6.65;;;;;;;;;;4978315;28;20506;-73
2021/12/26 14:28:55;;;;;;;22.30;12.20;;;;;;;;;;4977071;28;20118;-76
2021/12/26 14:31:31;;;;;;;20.48;11.00;;;;;;;;;;4979442;28;20503;-76
2021/12/26 14:33:57;;;;;;;23.52;9.15;;;;;;;;;;4999576;28;20498;-76